sensor_id;sensor_type;location;lat;lon;timestamp;temperature;humidity
5457;DHT22;2751;49.802;9.944;2023-07-08T00:02:11;19.80;54.80
5457;DHT22;2751;49.802;9.944;2023-07-08T00:04:39;19.70;55.20
5457;DHT22;2751;49.802;9.944;2023-07-08T00:07:10;19.60;55.30
5457;DHT22;2751;49.802;9.944;2023-07-08T00:09:39;19.60;53.30
5457;DHT22;2751;49.802;9.944;2023-07-08T00:12:10;19.60;53.60
5457;DHT22;2751;49.802;9.944;2023-07-08T00:14:37;19.60;54.30
5457;DHT22;2751;49.802;9.944;2023-07-08T00:17:10;19.50;54.90
5457;DHT22;2751;49.802;9.944;2023-07-08T00:19:37;19.60;55.70
5457;DHT22;2751;49.802;9.944;2023-07-08T00:22:10;19.60;55.50
5457;DHT22;2751;49.802;9.944;2023-07-08T00:24:41;19.50;55.40
5457;DHT22;2751;49.802;9.944;2023-07-08T00:27:09;19.50;54.70
5457;DHT22;2751;49.802;9.944;2023-07-08T00:29:36;19.50;55.20
5457;DHT22;2751;49.802;9.944;2023-07-08T00:32:09;19.50;56.00
5457;DHT22;2751;49.802;9.944;2023-07-08T00:34:36;19.40;56.50
5457;DHT22;2751;49.802;9.944;2023-07-08T00:37:03;19.40;56.90
5457;DHT22;2751;49.802;9.944;2023-07-08T00:39:30;19.40;56.50
5457;DHT22;2751;49.802;9.944;2023-07-08T00:42:00;19.30;57.00
5457;DHT22;2751;49.802;9.944;2023-07-08T00:44:28;19.30;57.70
5457;DHT22;2751;49.802;9.944;2023-07-08T00:47:02;19.30;57.20
5457;DHT22;2751;49.802;9.944;2023-07-08T00:49:36;19.20;56.40
5457;DHT22;2751;49.802;9.944;2023-07-08T00:52:22;19.20;56.30
5457;DHT22;2751;49.802;9.944;2023-07-08T00:54:50;19.20;57.10
5457;DHT22;2751;49.802;9.944;2023-07-08T00:57:18;19.20;57.40
5457;DHT22;2751;49.802;9.944;2023-07-08T00:59:49;19.10;57.90
5457;DHT22;2751;49.802;9.944;2023-07-08T01:02:19;19.10;58.20
5457;DHT22;2751;49.802;9.944;2023-07-08T01:04:52;19.10;58.40
5457;DHT22;2751;49.802;9.944;2023-07-08T01:07:20;19.00;58.70
5457;DHT22;2751;49.802;9.944;2023-07-08T01:09:51;19.10;58.90
5457;DHT22;2751;49.802;9.944;2023-07-08T01:12:22;18.60;59.40
5457;DHT22;2751;49.802;9.944;2023-07-08T01:14:52;19.00;60.60
5457;DHT22;2751;49.802;9.944;2023-07-08T01:17:21;19.00;60.90
5457;DHT22;2751;49.802;9.944;2023-07-08T01:19:49;18.90;61.50
5457;DHT22;2751;49.802;9.944;2023-07-08T01:22:18;18.90;62.60
5457;DHT22;2751;49.802;9.944;2023-07-08T01:24:45;18.90;63.00
5457;DHT22;2751;49.802;9.944;2023-07-08T01:27:17;18.80;63.70
5457;DHT22;2751;49.802;9.944;2023-07-08T01:29:45;18.70;64.70
5457;DHT22;2751;49.802;9.944;2023-07-08T01:32:13;18.70;65.50
5457;DHT22;2751;49.802;9.944;2023-07-08T01:34:44;18.60;66.10
5457;DHT22;2751;49.802;9.944;2023-07-08T01:37:32;18.60;66.80
5457;DHT22;2751;49.802;9.944;2023-07-08T01:40:14;18.60;67.80
5457;DHT22;2751;49.802;9.944;2023-07-08T01:42:41;18.50;68.50
5457;DHT22;2751;49.802;9.944;2023-07-08T01:45:11;18.50;69.30
5457;DHT22;2751;49.802;9.944;2023-07-08T01:47:39;18.50;70.20
5457;DHT22;2751;49.802;9.944;2023-07-08T01:50:08;18.40;69.40
5457;DHT22;2751;49.802;9.944;2023-07-08T01:52:37;18.40;70.50
5457;DHT22;2751;49.802;9.944;2023-07-08T01:55:05;18.40;71.00
5457;DHT22;2751;49.802;9.944;2023-07-08T01:57:32;18.40;70.50
5457;DHT22;2751;49.802;9.944;2023-07-08T01:59:59;18.40;70.70
5457;DHT22;2751;49.802;9.944;2023-07-08T02:02:26;18.40;70.80
5457;DHT22;2751;49.802;9.944;2023-07-08T02:04:53;18.30;71.30
5457;DHT22;2751;49.802;9.944;2023-07-08T02:07:19;18.30;71.90
5457;DHT22;2751;49.802;9.944;2023-07-08T02:09:48;18.20;72.70
5457;DHT22;2751;49.802;9.944;2023-07-08T02:12:15;18.20;73.50
5457;DHT22;2751;49.802;9.944;2023-07-08T02:14:41;18.10;74.70
5457;DHT22;2751;49.802;9.944;2023-07-08T02:17:08;18.00;75.90
5457;DHT22;2751;49.802;9.944;2023-07-08T02:19:35;18.00;77.10
5457;DHT22;2751;49.802;9.944;2023-07-08T02:22:02;17.90;76.50
5457;DHT22;2751;49.802;9.944;2023-07-08T02:24:30;18.00;76.70
5457;DHT22;2751;49.802;9.944;2023-07-08T02:26:58;18.00;77.80
5457;DHT22;2751;49.802;9.944;2023-07-08T02:29:25;17.90;79.40
5457;DHT22;2751;49.802;9.944;2023-07-08T02:31:52;17.90;81.70
5457;DHT22;2751;49.802;9.944;2023-07-08T02:34:19;17.70;82.20
5457;DHT22;2751;49.802;9.944;2023-07-08T02:36:46;17.90;83.20
5457;DHT22;2751;49.802;9.944;2023-07-08T02:39:13;17.90;84.10
5457;DHT22;2751;49.802;9.944;2023-07-08T02:41:40;17.80;85.90
5457;DHT22;2751;49.802;9.944;2023-07-08T02:44:08;17.80;87.20
5457;DHT22;2751;49.802;9.944;2023-07-08T02:46:35;17.70;88.20
5457;DHT22;2751;49.802;9.944;2023-07-08T02:49:02;17.70;89.60
5457;DHT22;2751;49.802;9.944;2023-07-08T02:51:29;17.60;90.40
5457;DHT22;2751;49.802;9.944;2023-07-08T02:53:56;17.60;91.20
5457;DHT22;2751;49.802;9.944;2023-07-08T02:56:23;17.60;92.00
5457;DHT22;2751;49.802;9.944;2023-07-08T02:58:52;17.60;92.90
5457;DHT22;2751;49.802;9.944;2023-07-08T03:01:20;17.20;93.50
5457;DHT22;2751;49.802;9.944;2023-07-08T03:03:47;17.40;94.30
5457;DHT22;2751;49.802;9.944;2023-07-08T03:06:15;17.40;94.80
5457;DHT22;2751;49.802;9.944;2023-07-08T03:08:42;17.40;95.50
5457;DHT22;2751;49.802;9.944;2023-07-08T03:11:09;17.30;96.30
5457;DHT22;2751;49.802;9.944;2023-07-08T03:13:35;17.30;96.30
5457;DHT22;2751;49.802;9.944;2023-07-08T03:16:03;17.30;97.00
5457;DHT22;2751;49.802;9.944;2023-07-08T03:18:39;17.20;97.20
5457;DHT22;2751;49.802;9.944;2023-07-08T03:21:12;17.20;98.20
5457;DHT22;2751;49.802;9.944;2023-07-08T03:23:39;17.20;99.10
5457;DHT22;2751;49.802;9.944;2023-07-08T03:26:06;17.10;99.90
5457;DHT22;2751;49.802;9.944;2023-07-08T03:28:33;17.10;99.90
5457;DHT22;2751;49.802;9.944;2023-07-08T03:31:00;17.10;99.90
5457;DHT22;2751;49.802;9.944;2023-07-08T03:33:27;17.20;99.90
5457;DHT22;2751;49.802;9.944;2023-07-08T03:35:56;17.10;99.90
5457;DHT22;2751;49.802;9.944;2023-07-08T03:38:22;17.10;99.90
5457;DHT22;2751;49.802;9.944;2023-07-08T03:40:49;17.10;99.90
5457;DHT22;2751;49.802;9.944;2023-07-08T03:43:16;17.10;99.90
5457;DHT22;2751;49.802;9.944;2023-07-08T03:45:44;17.10;99.90
5457;DHT22;2751;49.802;9.944;2023-07-08T03:48:11;17.10;99.90
5457;DHT22;2751;49.802;9.944;2023-07-08T03:50:39;17.10;99.90
5457;DHT22;2751;49.802;9.944;2023-07-08T03:53:09;17.10;99.90
5457;DHT22;2751;49.802;9.944;2023-07-08T03:55:36;17.10;99.90
5457;DHT22;2751;49.802;9.944;2023-07-08T03:58:02;17.10;99.90
5457;DHT22;2751;49.802;9.944;2023-07-08T04:00:29;17.10;99.90
5457;DHT22;2751;49.802;9.944;2023-07-08T04:02:56;17.10;99.90
5457;DHT22;2751;49.802;9.944;2023-07-08T04:05:24;17.00;99.90
5457;DHT22;2751;49.802;9.944;2023-07-08T04:07:50;17.00;99.90
5457;DHT22;2751;49.802;9.944;2023-07-08T04:10:19;17.00;99.90
5457;DHT22;2751;49.802;9.944;2023-07-08T04:12:46;17.00;99.90
5457;DHT22;2751;49.802;9.944;2023-07-08T04:15:13;17.10;99.90
5457;DHT22;2751;49.802;9.944;2023-07-08T04:17:42;17.10;99.90
5457;DHT22;2751;49.802;9.944;2023-07-08T04:20:12;17.10;99.90
5457;DHT22;2751;49.802;9.944;2023-07-08T04:22:40;17.10;99.90
5457;DHT22;2751;49.802;9.944;2023-07-08T04:25:07;17.20;99.90
5457;DHT22;2751;49.802;9.944;2023-07-08T04:27:37;17.20;99.90
5457;DHT22;2751;49.802;9.944;2023-07-08T04:30:05;17.20;99.90
5457;DHT22;2751;49.802;9.944;2023-07-08T04:32:33;17.30;99.90
5457;DHT22;2751;49.802;9.944;2023-07-08T04:35:00;17.30;99.90
5457;DHT22;2751;49.802;9.944;2023-07-08T04:37:27;17.30;99.90
5457;DHT22;2751;49.802;9.944;2023-07-08T04:39:54;17.30;99.90
5457;DHT22;2751;49.802;9.944;2023-07-08T04:42:21;17.40;99.90
5457;DHT22;2751;49.802;9.944;2023-07-08T04:44:49;17.40;99.90
5457;DHT22;2751;49.802;9.944;2023-07-08T04:47:17;17.40;99.90
5457;DHT22;2751;49.802;9.944;2023-07-08T04:49:45;17.30;99.90
5457;DHT22;2751;49.802;9.944;2023-07-08T04:52:12;17.40;99.90
5457;DHT22;2751;49.802;9.944;2023-07-08T04:54:39;17.30;99.90
5457;DHT22;2751;49.802;9.944;2023-07-08T04:57:07;17.40;99.90
5457;DHT22;2751;49.802;9.944;2023-07-08T04:59:34;17.50;99.90
5457;DHT22;2751;49.802;9.944;2023-07-08T05:02:02;17.50;99.90
5457;DHT22;2751;49.802;9.944;2023-07-08T05:04:29;17.60;99.90
5457;DHT22;2751;49.802;9.944;2023-07-08T05:06:56;17.60;99.90
5457;DHT22;2751;49.802;9.944;2023-07-08T05:09:23;17.70;99.90
5457;DHT22;2751;49.802;9.944;2023-07-08T05:11:51;17.80;99.90
5457;DHT22;2751;49.802;9.944;2023-07-08T05:14:19;17.90;99.90
5457;DHT22;2751;49.802;9.944;2023-07-08T05:16:46;18.00;99.90
5457;DHT22;2751;49.802;9.944;2023-07-08T05:19:14;18.10;99.90
5457;DHT22;2751;49.802;9.944;2023-07-08T05:21:41;18.10;99.90
5457;DHT22;2751;49.802;9.944;2023-07-08T05:24:10;18.20;99.90
5457;DHT22;2751;49.802;9.944;2023-07-08T05:26:37;18.30;99.90
5457;DHT22;2751;49.802;9.944;2023-07-08T05:29:04;18.40;99.90
5457;DHT22;2751;49.802;9.944;2023-07-08T05:31:32;18.60;99.90
5457;DHT22;2751;49.802;9.944;2023-07-08T05:33:59;18.50;99.90
5457;DHT22;2751;49.802;9.944;2023-07-08T05:36:28;19.20;99.90
5457;DHT22;2751;49.802;9.944;2023-07-08T05:38:55;19.40;99.90
5457;DHT22;2751;49.802;9.944;2023-07-08T05:41:21;19.40;99.90
5457;DHT22;2751;49.802;9.944;2023-07-08T05:43:48;19.50;99.90
5457;DHT22;2751;49.802;9.944;2023-07-08T05:46:15;19.60;99.90
5457;DHT22;2751;49.802;9.944;2023-07-08T05:48:42;19.60;99.90
5457;DHT22;2751;49.802;9.944;2023-07-08T05:51:09;19.40;99.90
5457;DHT22;2751;49.802;9.944;2023-07-08T05:53:38;19.80;99.90
5457;DHT22;2751;49.802;9.944;2023-07-08T05:56:05;19.90;98.30
5457;DHT22;2751;49.802;9.944;2023-07-08T05:58:32;20.10;97.10
5457;DHT22;2751;49.802;9.944;2023-07-08T06:00:59;20.30;96.40
5457;DHT22;2751;49.802;9.944;2023-07-08T06:03:26;20.40;95.40
5457;DHT22;2751;49.802;9.944;2023-07-08T06:05:53;20.60;94.50
5457;DHT22;2751;49.802;9.944;2023-07-08T06:08:20;20.70;93.80
5457;DHT22;2751;49.802;9.944;2023-07-08T06:10:50;20.90;93.20
5457;DHT22;2751;49.802;9.944;2023-07-08T06:13:17;21.10;92.60
5457;DHT22;2751;49.802;9.944;2023-07-08T06:15:44;21.20;92.10
5457;DHT22;2751;49.802;9.944;2023-07-08T06:18:11;21.30;91.70
5457;DHT22;2751;49.802;9.944;2023-07-08T06:20:38;21.40;91.40
5457;DHT22;2751;49.802;9.944;2023-07-08T06:23:05;21.60;91.10
5457;DHT22;2751;49.802;9.944;2023-07-08T06:25:32;21.80;90.50
5457;DHT22;2751;49.802;9.944;2023-07-08T06:28:01;21.90;90.20
5457;DHT22;2751;49.802;9.944;2023-07-08T06:30:27;22.10;89.30
5457;DHT22;2751;49.802;9.944;2023-07-08T06:32:54;22.20;88.60
5457;DHT22;2751;49.802;9.944;2023-07-08T06:35:21;22.40;86.50
5457;DHT22;2751;49.802;9.944;2023-07-08T06:37:48;22.40;85.30
5457;DHT22;2751;49.802;9.944;2023-07-08T06:40:15;22.40;84.70
5457;DHT22;2751;49.802;9.944;2023-07-08T06:42:45;22.40;84.80
5457;DHT22;2751;49.802;9.944;2023-07-08T06:45:13;22.50;84.60
5457;DHT22;2751;49.802;9.944;2023-07-08T06:47:40;22.60;83.90
5457;DHT22;2751;49.802;9.944;2023-07-08T06:50:08;22.70;83.20
5457;DHT22;2751;49.802;9.944;2023-07-08T06:52:35;22.80;82.20
5457;DHT22;2751;49.802;9.944;2023-07-08T06:55:04;23.00;82.20
5457;DHT22;2751;49.802;9.944;2023-07-08T06:57:31;23.10;80.80
5457;DHT22;2751;49.802;9.944;2023-07-08T06:59:59;23.20;79.80
5457;DHT22;2751;49.802;9.944;2023-07-08T07:02:28;23.40;79.10
5457;DHT22;2751;49.802;9.944;2023-07-08T07:04:55;23.50;78.20
5457;DHT22;2751;49.802;9.944;2023-07-08T07:07:22;23.60;77.40
5457;DHT22;2751;49.802;9.944;2023-07-08T07:09:50;23.80;83.60
5457;DHT22;2751;49.802;9.944;2023-07-08T07:12:18;23.90;77.00
5457;DHT22;2751;49.802;9.944;2023-07-08T07:14:47;24.10;88.20
5457;DHT22;2751;49.802;9.944;2023-07-08T07:17:18;24.20;76.30
5457;DHT22;2751;49.802;9.944;2023-07-08T07:19:46;24.40;76.60
5457;DHT22;2751;49.802;9.944;2023-07-08T07:22:13;24.60;73.00
5457;DHT22;2751;49.802;9.944;2023-07-08T07:24:40;24.80;78.90
5457;DHT22;2751;49.802;9.944;2023-07-08T07:27:07;24.90;71.00
5457;DHT22;2751;49.802;9.944;2023-07-08T07:29:42;25.10;68.50
5457;DHT22;2751;49.802;9.944;2023-07-08T07:32:10;25.20;68.40
5457;DHT22;2751;49.802;9.944;2023-07-08T07:34:37;25.70;69.70
5457;DHT22;2751;49.802;9.944;2023-07-08T07:37:06;25.90;67.40
5457;DHT22;2751;49.802;9.944;2023-07-08T07:39:36;26.40;64.00
5457;DHT22;2751;49.802;9.944;2023-07-08T07:42:03;26.80;61.40
5457;DHT22;2751;49.802;9.944;2023-07-08T07:44:30;27.30;59.80
5457;DHT22;2751;49.802;9.944;2023-07-08T07:46:57;27.80;58.50
5457;DHT22;2751;49.802;9.944;2023-07-08T07:49:24;27.80;57.50
5457;DHT22;2751;49.802;9.944;2023-07-08T07:51:51;28.00;57.20
5457;DHT22;2751;49.802;9.944;2023-07-08T07:54:19;27.90;56.90
5457;DHT22;2751;49.802;9.944;2023-07-08T07:56:46;28.00;56.30
5457;DHT22;2751;49.802;9.944;2023-07-08T07:59:13;27.70;56.00
5457;DHT22;2751;49.802;9.944;2023-07-08T08:01:40;27.80;56.30
5457;DHT22;2751;49.802;9.944;2023-07-08T08:04:09;27.90;55.70
5457;DHT22;2751;49.802;9.944;2023-07-08T08:06:36;28.10;56.50
5457;DHT22;2751;49.802;9.944;2023-07-08T08:09:04;28.30;55.10
5457;DHT22;2751;49.802;9.944;2023-07-08T08:11:33;28.70;54.50
5457;DHT22;2751;49.802;9.944;2023-07-08T08:14:00;28.90;53.80
5457;DHT22;2751;49.802;9.944;2023-07-08T08:16:29;29.20;52.50
5457;DHT22;2751;49.802;9.944;2023-07-08T08:18:59;29.60;51.80
5457;DHT22;2751;49.802;9.944;2023-07-08T08:21:26;29.70;51.30
5457;DHT22;2751;49.802;9.944;2023-07-08T08:23:53;29.70;51.40
5457;DHT22;2751;49.802;9.944;2023-07-08T08:26:20;29.80;50.70
5457;DHT22;2751;49.802;9.944;2023-07-08T08:28:48;29.70;50.40
5457;DHT22;2751;49.802;9.944;2023-07-08T08:31:15;29.70;50.20
5457;DHT22;2751;49.802;9.944;2023-07-08T08:33:42;29.70;50.40
5457;DHT22;2751;49.802;9.944;2023-07-08T08:36:09;29.80;50.30
5457;DHT22;2751;49.802;9.944;2023-07-08T08:38:36;29.90;49.60
5457;DHT22;2751;49.802;9.944;2023-07-08T08:41:04;29.70;49.10
5457;DHT22;2751;49.802;9.944;2023-07-08T08:43:34;29.50;48.80
5457;DHT22;2751;49.802;9.944;2023-07-08T08:46:06;29.70;47.80
5457;DHT22;2751;49.802;9.944;2023-07-08T08:48:40;30.40;47.10
5457;DHT22;2751;49.802;9.944;2023-07-08T08:51:14;31.20;45.00
5457;DHT22;2751;49.802;9.944;2023-07-08T08:53:42;31.80;94.70
5457;DHT22;2751;49.802;9.944;2023-07-08T08:56:15;32.60;99.90
5457;DHT22;2751;49.802;9.944;2023-07-08T08:58:46;33.80;99.90
5457;DHT22;2751;49.802;9.944;2023-07-08T09:01:16;34.20;99.90
5457;DHT22;2751;49.802;9.944;2023-07-08T09:03:47;34.90;99.90
5457;DHT22;2751;49.802;9.944;2023-07-08T09:06:19;34.50;99.90
5457;DHT22;2751;49.802;9.944;2023-07-08T09:08:48;35.00;99.90
5457;DHT22;2751;49.802;9.944;2023-07-08T09:11:23;35.40;99.90
5457;DHT22;2751;49.802;9.944;2023-07-08T09:13:53;35.70;99.90
5457;DHT22;2751;49.802;9.944;2023-07-08T09:16:27;37.00;99.90
5457;DHT22;2751;49.802;9.944;2023-07-08T09:18:59;37.10;99.90
5457;DHT22;2751;49.802;9.944;2023-07-08T09:21:31;35.80;99.90
5457;DHT22;2751;49.802;9.944;2023-07-08T09:24:07;34.60;99.90
5457;DHT22;2751;49.802;9.944;2023-07-08T09:26:36;34.90;99.90
5457;DHT22;2751;49.802;9.944;2023-07-08T09:29:08;35.70;99.90
5457;DHT22;2751;49.802;9.944;2023-07-08T09:31:38;37.20;99.90
5457;DHT22;2751;49.802;9.944;2023-07-08T09:34:11;37.10;99.90
5457;DHT22;2751;49.802;9.944;2023-07-08T09:36:40;36.20;99.90
5457;DHT22;2751;49.802;9.944;2023-07-08T09:39:11;35.50;99.90
5457;DHT22;2751;49.802;9.944;2023-07-08T09:41:39;36.80;99.90
5457;DHT22;2751;49.802;9.944;2023-07-08T09:44:15;37.00;99.90
5457;DHT22;2751;49.802;9.944;2023-07-08T09:46:44;36.40;99.90
5457;DHT22;2751;49.802;9.944;2023-07-08T09:49:30;37.60;99.90
5457;DHT22;2751;49.802;9.944;2023-07-08T09:51:58;39.60;1.00
5457;DHT22;2751;49.802;9.944;2023-07-08T09:54:28;40.80;1.00
5457;DHT22;2751;49.802;9.944;2023-07-08T09:56:59;41.20;1.00
5457;DHT22;2751;49.802;9.944;2023-07-08T09:59:32;40.10;1.00
5457;DHT22;2751;49.802;9.944;2023-07-08T10:02:12;38.90;99.90
5457;DHT22;2751;49.802;9.944;2023-07-08T10:04:45;39.00;99.90
5457;DHT22;2751;49.802;9.944;2023-07-08T10:07:16;37.90;99.90
5457;DHT22;2751;49.802;9.944;2023-07-08T10:09:43;38.20;99.90
5457;DHT22;2751;49.802;9.944;2023-07-08T10:12:13;38.90;1.00
5457;DHT22;2751;49.802;9.944;2023-07-08T10:14:45;39.50;99.90
5457;DHT22;2751;49.802;9.944;2023-07-08T10:17:15;41.10;1.00
5457;DHT22;2751;49.802;9.944;2023-07-08T10:19:43;41.90;1.00
5457;DHT22;2751;49.802;9.944;2023-07-08T10:22:22;42.20;1.00
5457;DHT22;2751;49.802;9.944;2023-07-08T10:25:02;42.60;1.00
5457;DHT22;2751;49.802;9.944;2023-07-08T10:27:35;42.80;1.00
5457;DHT22;2751;49.802;9.944;2023-07-08T10:30:16;42.80;1.00
5457;DHT22;2751;49.802;9.944;2023-07-08T10:32:57;42.60;1.00
5457;DHT22;2751;49.802;9.944;2023-07-08T10:35:28;42.80;1.00
5457;DHT22;2751;49.802;9.944;2023-07-08T10:38:19;43.30;1.00
5457;DHT22;2751;49.802;9.944;2023-07-08T10:40:50;43.70;1.00
5457;DHT22;2751;49.802;9.944;2023-07-08T10:43:30;43.80;1.00
5457;DHT22;2751;49.802;9.944;2023-07-08T10:46:12;42.80;1.00
5457;DHT22;2751;49.802;9.944;2023-07-08T10:51:49;44.40;1.00
5457;DHT22;2751;49.802;9.944;2023-07-08T10:54:38;44.10;1.00
5457;DHT22;2751;49.802;9.944;2023-07-08T10:57:20;44.30;1.00
5457;DHT22;2751;49.802;9.944;2023-07-08T10:59:58;44.20;1.00
5457;DHT22;2751;49.802;9.944;2023-07-08T11:05:26;45.50;1.00
5457;DHT22;2751;49.802;9.944;2023-07-08T11:08:01;44.60;1.00
5457;DHT22;2751;49.802;9.944;2023-07-08T11:10:36;45.40;1.00
5457;DHT22;2751;49.802;9.944;2023-07-08T11:13:10;45.00;1.00
5457;DHT22;2751;49.802;9.944;2023-07-08T11:15:42;45.60;1.00
5457;DHT22;2751;49.802;9.944;2023-07-08T11:18:15;46.20;1.00
5457;DHT22;2751;49.802;9.944;2023-07-08T11:20:51;46.30;1.00
5457;DHT22;2751;49.802;9.944;2023-07-08T11:23:26;45.90;1.00
5457;DHT22;2751;49.802;9.944;2023-07-08T11:26:12;45.20;1.00
5457;DHT22;2751;49.802;9.944;2023-07-08T11:28:41;45.40;1.00
5457;DHT22;2751;49.802;9.944;2023-07-08T11:31:08;46.10;1.00
5457;DHT22;2751;49.802;9.944;2023-07-08T11:33:38;45.70;1.00
5457;DHT22;2751;49.802;9.944;2023-07-08T11:36:07;45.30;1.00
5457;DHT22;2751;49.802;9.944;2023-07-08T11:38:35;44.70;1.00
5457;DHT22;2751;49.802;9.944;2023-07-08T11:41:11;45.30;1.00
5457;DHT22;2751;49.802;9.944;2023-07-08T11:43:44;46.50;1.00
5457;DHT22;2751;49.802;9.944;2023-07-08T11:46:15;46.90;1.00
5457;DHT22;2751;49.802;9.944;2023-07-08T11:48:47;46.50;1.00
5457;DHT22;2751;49.802;9.944;2023-07-08T11:51:18;45.60;1.00
5457;DHT22;2751;49.802;9.944;2023-07-08T11:53:50;46.00;1.00
5457;DHT22;2751;49.802;9.944;2023-07-08T11:56:23;46.40;1.00
5457;DHT22;2751;49.802;9.944;2023-07-08T11:59:11;46.30;1.00
5457;DHT22;2751;49.802;9.944;2023-07-08T12:01:41;47.50;1.00
5457;DHT22;2751;49.802;9.944;2023-07-08T12:04:28;48.30;1.00
5457;DHT22;2751;49.802;9.944;2023-07-08T12:07:19;48.80;1.00
5457;DHT22;2751;49.802;9.944;2023-07-08T12:09:48;49.70;1.00
5457;DHT22;2751;49.802;9.944;2023-07-08T12:12:23;47.40;1.00
5457;DHT22;2751;49.802;9.944;2023-07-08T12:14:52;47.90;1.00
5457;DHT22;2751;49.802;9.944;2023-07-08T12:17:20;48.80;1.00
5457;DHT22;2751;49.802;9.944;2023-07-08T12:19:47;48.70;1.00
5457;DHT22;2751;49.802;9.944;2023-07-08T12:22:17;48.50;1.00
5457;DHT22;2751;49.802;9.944;2023-07-08T12:24:44;48.00;1.00
5457;DHT22;2751;49.802;9.944;2023-07-08T12:27:14;48.00;1.00
5457;DHT22;2751;49.802;9.944;2023-07-08T12:29:41;48.40;1.00
5457;DHT22;2751;49.802;9.944;2023-07-08T12:32:11;47.90;1.00
5457;DHT22;2751;49.802;9.944;2023-07-08T12:34:39;48.80;1.00
5457;DHT22;2751;49.802;9.944;2023-07-08T12:37:11;49.40;1.00
5457;DHT22;2751;49.802;9.944;2023-07-08T12:39:40;49.90;1.00
5457;DHT22;2751;49.802;9.944;2023-07-08T12:42:10;48.30;1.00
5457;DHT22;2751;49.802;9.944;2023-07-08T12:44:39;46.70;1.00
5457;DHT22;2751;49.802;9.944;2023-07-08T12:47:09;47.00;1.00
5457;DHT22;2751;49.802;9.944;2023-07-08T12:49:36;48.10;1.00
5457;DHT22;2751;49.802;9.944;2023-07-08T12:52:04;48.80;1.00
5457;DHT22;2751;49.802;9.944;2023-07-08T12:54:31;48.80;1.00
5457;DHT22;2751;49.802;9.944;2023-07-08T12:57:00;48.40;1.00
5457;DHT22;2751;49.802;9.944;2023-07-08T12:59:27;48.00;1.00
5457;DHT22;2751;49.802;9.944;2023-07-08T13:01:55;46.20;99.90
5457;DHT22;2751;49.802;9.944;2023-07-08T13:04:22;44.60;99.90
5457;DHT22;2751;49.802;9.944;2023-07-08T13:06:49;43.40;99.90
5457;DHT22;2751;49.802;9.944;2023-07-08T13:09:36;42.30;99.90
5457;DHT22;2751;49.802;9.944;2023-07-08T13:12:13;43.40;99.90
5457;DHT22;2751;49.802;9.944;2023-07-08T13:14:42;43.70;99.90
5457;DHT22;2751;49.802;9.944;2023-07-08T13:17:12;42.70;99.90
5457;DHT22;2751;49.802;9.944;2023-07-08T13:19:40;41.30;99.90
5457;DHT22;2751;49.802;9.944;2023-07-08T13:22:12;40.70;99.90
5457;DHT22;2751;49.802;9.944;2023-07-08T13:24:41;40.30;99.90
5457;DHT22;2751;49.802;9.944;2023-07-08T13:27:15;39.30;99.90
5457;DHT22;2751;49.802;9.944;2023-07-08T13:29:43;39.10;99.90
5457;DHT22;2751;49.802;9.944;2023-07-08T13:32:10;40.30;99.90
5457;DHT22;2751;49.802;9.944;2023-07-08T13:34:39;40.40;99.90
5457;DHT22;2751;49.802;9.944;2023-07-08T13:37:10;41.20;99.90
5457;DHT22;2751;49.802;9.944;2023-07-08T13:39:38;41.90;99.90
5457;DHT22;2751;49.802;9.944;2023-07-08T13:42:06;43.30;99.90
5457;DHT22;2751;49.802;9.944;2023-07-08T13:44:43;45.00;99.90
5457;DHT22;2751;49.802;9.944;2023-07-08T13:47:21;46.90;99.90
5457;DHT22;2751;49.802;9.944;2023-07-08T13:49:49;48.40;1.00
5457;DHT22;2751;49.802;9.944;2023-07-08T13:52:21;49.00;1.00
5457;DHT22;2751;49.802;9.944;2023-07-08T13:54:50;49.40;1.00
5457;DHT22;2751;49.802;9.944;2023-07-08T13:57:20;48.80;1.00
5457;DHT22;2751;49.802;9.944;2023-07-08T13:59:49;47.70;1.00
5457;DHT22;2751;49.802;9.944;2023-07-08T14:02:18;44.70;99.90
5457;DHT22;2751;49.802;9.944;2023-07-08T14:04:47;43.50;99.90
5457;DHT22;2751;49.802;9.944;2023-07-08T14:07:16;42.20;99.90
5457;DHT22;2751;49.802;9.944;2023-07-08T14:09:43;41.00;99.90
5457;DHT22;2751;49.802;9.944;2023-07-08T14:12:10;40.80;99.90
5457;DHT22;2751;49.802;9.944;2023-07-08T14:14:36;42.80;99.90
5457;DHT22;2751;49.802;9.944;2023-07-08T14:17:09;44.90;99.90
5457;DHT22;2751;49.802;9.944;2023-07-08T14:19:37;46.00;99.90
5457;DHT22;2751;49.802;9.944;2023-07-08T14:22:19;47.10;99.90
5457;DHT22;2751;49.802;9.944;2023-07-08T14:24:47;46.20;99.90
5457;DHT22;2751;49.802;9.944;2023-07-08T14:27:14;46.60;99.90
5457;DHT22;2751;49.802;9.944;2023-07-08T14:29:45;47.10;99.90
5457;DHT22;2751;49.802;9.944;2023-07-08T14:32:16;46.60;99.90
5457;DHT22;2751;49.802;9.944;2023-07-08T14:34:48;48.20;1.00
5457;DHT22;2751;49.802;9.944;2023-07-08T14:37:16;49.50;1.00
5457;DHT22;2751;49.802;9.944;2023-07-08T14:39:44;48.50;1.00
5457;DHT22;2751;49.802;9.944;2023-07-08T14:42:12;47.50;99.90
5457;DHT22;2751;49.802;9.944;2023-07-08T14:44:41;46.00;99.90
5457;DHT22;2751;49.802;9.944;2023-07-08T14:47:10;45.90;99.90
5457;DHT22;2751;49.802;9.944;2023-07-08T14:49:39;46.30;99.90
5457;DHT22;2751;49.802;9.944;2023-07-08T14:52:07;47.60;99.90
5457;DHT22;2751;49.802;9.944;2023-07-08T14:54:34;48.10;99.90
5457;DHT22;2751;49.802;9.944;2023-07-08T14:57:02;48.90;1.00
5457;DHT22;2751;49.802;9.944;2023-07-08T14:59:32;49.40;1.00
5457;DHT22;2751;49.802;9.944;2023-07-08T15:02:07;49.70;1.00
5457;DHT22;2751;49.802;9.944;2023-07-08T15:04:43;49.00;1.00
5457;DHT22;2751;49.802;9.944;2023-07-08T15:07:09;47.40;99.90
5457;DHT22;2751;49.802;9.944;2023-07-08T15:09:36;46.60;99.90
5457;DHT22;2751;49.802;9.944;2023-07-08T15:12:04;46.00;99.90
5457;DHT22;2751;49.802;9.944;2023-07-08T15:14:32;46.70;99.90
5457;DHT22;2751;49.802;9.944;2023-07-08T15:16:59;46.00;99.90
5457;DHT22;2751;49.802;9.944;2023-07-08T15:19:26;47.10;99.90
5457;DHT22;2751;49.802;9.944;2023-07-08T15:21:55;46.70;99.90
5457;DHT22;2751;49.802;9.944;2023-07-08T15:24:22;46.30;99.90
5457;DHT22;2751;49.802;9.944;2023-07-08T15:26:50;45.50;99.90
5457;DHT22;2751;49.802;9.944;2023-07-08T15:29:19;44.80;99.90
5457;DHT22;2751;49.802;9.944;2023-07-08T15:31:47;44.50;99.90
5457;DHT22;2751;49.802;9.944;2023-07-08T15:34:16;45.80;99.90
5457;DHT22;2751;49.802;9.944;2023-07-08T15:36:43;46.50;99.90
5457;DHT22;2751;49.802;9.944;2023-07-08T15:39:12;46.10;99.90
5457;DHT22;2751;49.802;9.944;2023-07-08T15:41:39;46.90;99.90
5457;DHT22;2751;49.802;9.944;2023-07-08T15:44:08;46.10;99.90
5457;DHT22;2751;49.802;9.944;2023-07-08T15:46:40;47.10;99.90
5457;DHT22;2751;49.802;9.944;2023-07-08T15:49:14;47.90;99.90
5457;DHT22;2751;49.802;9.944;2023-07-08T15:51:42;48.60;99.90
5457;DHT22;2751;49.802;9.944;2023-07-08T15:54:11;48.60;99.90
5457;DHT22;2751;49.802;9.944;2023-07-08T15:56:39;48.90;99.90
5457;DHT22;2751;49.802;9.944;2023-07-08T15:59:09;48.60;99.90
5457;DHT22;2751;49.802;9.944;2023-07-08T16:01:38;48.60;99.90
5457;DHT22;2751;49.802;9.944;2023-07-08T16:04:10;47.70;99.90
5457;DHT22;2751;49.802;9.944;2023-07-08T16:06:42;47.50;99.90
5457;DHT22;2751;49.802;9.944;2023-07-08T16:09:09;47.10;99.90
5457;DHT22;2751;49.802;9.944;2023-07-08T16:11:37;46.30;99.90
5457;DHT22;2751;49.802;9.944;2023-07-08T16:14:04;46.10;99.90
5457;DHT22;2751;49.802;9.944;2023-07-08T16:16:31;44.90;99.90
5457;DHT22;2751;49.802;9.944;2023-07-08T16:18:58;44.50;99.90
5457;DHT22;2751;49.802;9.944;2023-07-08T16:21:25;45.30;99.90
5457;DHT22;2751;49.802;9.944;2023-07-08T16:23:52;46.30;99.90
5457;DHT22;2751;49.802;9.944;2023-07-08T16:26:20;46.20;99.90